sensor_id;sensor_type;location;lat;lon;timestamp;P1;durP1;ratioP1;P2;durP2;ratioP2
11616;SDS011;5864;52.998;9.068;2022-08-26T00:01:18;14.63;;;9.47;;
11616;SDS011;5864;52.998;9.068;2022-08-26T00:03:46;14.70;;;9.70;;
11616;SDS011;5864;52.998;9.068;2022-08-26T00:06:15;13.97;;;9.83;;
11616;SDS011;5864;52.998;9.068;2022-08-26T00:08:43;15.20;;;9.73;;
11616;SDS011;5864;52.998;9.068;2022-08-26T00:11:12;17.50;;;10.47;;
11616;SDS011;5864;52.998;9.068;2022-08-26T00:13:40;13.43;;;9.77;;
11616;SDS011;5864;52.998;9.068;2022-08-26T00:16:08;19.57;;;10.10;;
11616;SDS011;5864;52.998;9.068;2022-08-26T00:18:36;12.93;;;8.73;;
11616;SDS011;5864;52.998;9.068;2022-08-26T00:21:05;17.00;;;9.90;;
11616;SDS011;5864;52.998;9.068;2022-08-26T00:23:34;12.37;;;9.27;;
11616;SDS011;5864;52.998;9.068;2022-08-26T00:26:02;13.33;;;9.10;;
11616;SDS011;5864;52.998;9.068;2022-08-26T00:28:31;16.90;;;9.43;;
11616;SDS011;5864;52.998;9.068;2022-08-26T00:30:59;15.97;;;9.30;;
11616;SDS011;5864;52.998;9.068;2022-08-26T00:33:28;12.00;;;8.67;;
11616;SDS011;5864;52.998;9.068;2022-08-26T00:35:56;14.30;;;9.07;;
11616;SDS011;5864;52.998;9.068;2022-08-26T00:38:24;14.60;;;10.47;;
11616;SDS011;5864;52.998;9.068;2022-08-26T00:40:53;15.97;;;10.37;;
11616;SDS011;5864;52.998;9.068;2022-08-26T00:43:22;15.87;;;9.90;;
11616;SDS011;5864;52.998;9.068;2022-08-26T00:45:54;13.50;;;8.87;;
11616;SDS011;5864;52.998;9.068;2022-08-26T00:48:25;13.90;;;9.07;;
11616;SDS011;5864;52.998;9.068;2022-08-26T00:50:58;14.23;;;9.80;;
11616;SDS011;5864;52.998;9.068;2022-08-26T00:53:29;13.10;;;9.20;;
11616;SDS011;5864;52.998;9.068;2022-08-26T00:56:00;14.67;;;9.40;;
11616;SDS011;5864;52.998;9.068;2022-08-26T00:58:32;13.03;;;9.43;;
11616;SDS011;5864;52.998;9.068;2022-08-26T01:01:03;13.40;;;10.20;;
11616;SDS011;5864;52.998;9.068;2022-08-26T01:03:32;16.80;;;10.03;;
11616;SDS011;5864;52.998;9.068;2022-08-26T01:06:01;13.57;;;9.03;;
11616;SDS011;5864;52.998;9.068;2022-08-26T01:08:30;10.83;;;9.20;;
11616;SDS011;5864;52.998;9.068;2022-08-26T01:10:58;11.63;;;9.47;;
11616;SDS011;5864;52.998;9.068;2022-08-26T01:13:28;12.83;;;9.33;;
11616;SDS011;5864;52.998;9.068;2022-08-26T01:15:58;12.37;;;9.13;;
11616;SDS011;5864;52.998;9.068;2022-08-26T01:18:29;12.20;;;9.97;;
11616;SDS011;5864;52.998;9.068;2022-08-26T01:20:57;14.33;;;9.70;;
11616;SDS011;5864;52.998;9.068;2022-08-26T01:23:31;16.17;;;10.10;;
11616;SDS011;5864;52.998;9.068;2022-08-26T01:26:04;18.90;;;9.90;;
11616;SDS011;5864;52.998;9.068;2022-08-26T01:28:35;13.33;;;9.40;;
11616;SDS011;5864;52.998;9.068;2022-08-26T01:31:06;15.83;;;9.17;;
11616;SDS011;5864;52.998;9.068;2022-08-26T01:33:36;12.07;;;9.63;;
11616;SDS011;5864;52.998;9.068;2022-08-26T01:36:11;12.90;;;9.23;;
11616;SDS011;5864;52.998;9.068;2022-08-26T01:38:41;15.17;;;9.70;;
11616;SDS011;5864;52.998;9.068;2022-08-26T01:41:10;15.83;;;10.53;;
11616;SDS011;5864;52.998;9.068;2022-08-26T01:43:40;13.20;;;10.03;;
11616;SDS011;5864;52.998;9.068;2022-08-26T01:46:10;13.67;;;9.60;;
11616;SDS011;5864;52.998;9.068;2022-08-26T01:48:40;13.87;;;9.90;;
11616;SDS011;5864;52.998;9.068;2022-08-26T01:51:09;13.00;;;8.70;;
11616;SDS011;5864;52.998;9.068;2022-08-26T01:53:38;15.00;;;8.93;;
11616;SDS011;5864;52.998;9.068;2022-08-26T01:56:08;16.90;;;10.13;;
11616;SDS011;5864;52.998;9.068;2022-08-26T01:58:39;14.93;;;9.37;;
11616;SDS011;5864;52.998;9.068;2022-08-26T02:01:09;13.67;;;9.73;;
11616;SDS011;5864;52.998;9.068;2022-08-26T02:03:41;12.40;;;9.77;;
11616;SDS011;5864;52.998;9.068;2022-08-26T02:06:16;14.23;;;9.70;;
11616;SDS011;5864;52.998;9.068;2022-08-26T02:08:47;15.97;;;10.43;;
11616;SDS011;5864;52.998;9.068;2022-08-26T02:11:17;15.47;;;9.10;;
11616;SDS011;5864;52.998;9.068;2022-08-26T02:13:45;13.90;;;9.20;;
11616;SDS011;5864;52.998;9.068;2022-08-26T02:16:16;18.60;;;10.50;;
11616;SDS011;5864;52.998;9.068;2022-08-26T02:18:46;14.30;;;8.97;;
11616;SDS011;5864;52.998;9.068;2022-08-26T02:21:16;14.70;;;8.77;;
11616;SDS011;5864;52.998;9.068;2022-08-26T02:23:43;13.80;;;9.33;;
11616;SDS011;5864;52.998;9.068;2022-08-26T02:26:14;15.40;;;9.33;;
11616;SDS011;5864;52.998;9.068;2022-08-26T02:28:45;15.50;;;8.93;;
11616;SDS011;5864;52.998;9.068;2022-08-26T02:31:17;12.23;;;8.67;;
11616;SDS011;5864;52.998;9.068;2022-08-26T02:33:45;13.90;;;9.10;;
11616;SDS011;5864;52.998;9.068;2022-08-26T02:36:16;13.77;;;9.50;;
11616;SDS011;5864;52.998;9.068;2022-08-26T02:38:45;17.57;;;9.93;;
11616;SDS011;5864;52.998;9.068;2022-08-26T02:41:14;15.60;;;9.53;;
11616;SDS011;5864;52.998;9.068;2022-08-26T02:43:42;14.70;;;9.63;;
11616;SDS011;5864;52.998;9.068;2022-08-26T02:46:10;12.10;;;9.40;;
11616;SDS011;5864;52.998;9.068;2022-08-26T02:48:37;17.60;;;10.03;;
11616;SDS011;5864;52.998;9.068;2022-08-26T02:51:05;10.47;;;9.03;;
11616;SDS011;5864;52.998;9.068;2022-08-26T02:53:32;16.57;;;9.67;;
11616;SDS011;5864;52.998;9.068;2022-08-26T02:56:00;13.57;;;10.00;;
11616;SDS011;5864;52.998;9.068;2022-08-26T02:58:29;13.63;;;9.47;;
11616;SDS011;5864;52.998;9.068;2022-08-26T03:00:56;13.40;;;9.77;;
11616;SDS011;5864;52.998;9.068;2022-08-26T03:03:24;13.80;;;10.00;;
11616;SDS011;5864;52.998;9.068;2022-08-26T03:05:51;12.40;;;9.07;;
11616;SDS011;5864;52.998;9.068;2022-08-26T03:08:19;14.33;;;9.30;;
11616;SDS011;5864;52.998;9.068;2022-08-26T03:10:47;16.37;;;9.80;;
11616;SDS011;5864;52.998;9.068;2022-08-26T03:13:15;14.27;;;9.40;;
11616;SDS011;5864;52.998;9.068;2022-08-26T03:15:44;13.67;;;10.10;;
11616;SDS011;5864;52.998;9.068;2022-08-26T03:18:12;12.23;;;9.70;;
11616;SDS011;5864;52.998;9.068;2022-08-26T03:20:39;14.33;;;9.80;;
11616;SDS011;5864;52.998;9.068;2022-08-26T03:23:07;13.23;;;10.00;;
11616;SDS011;5864;52.998;9.068;2022-08-26T03:25:35;18.67;;;10.30;;
11616;SDS011;5864;52.998;9.068;2022-08-26T03:28:02;12.87;;;10.00;;
11616;SDS011;5864;52.998;9.068;2022-08-26T03:30:30;17.80;;;9.33;;
11616;SDS011;5864;52.998;9.068;2022-08-26T03:33:08;14.83;;;10.03;;
11616;SDS011;5864;52.998;9.068;2022-08-26T03:35:36;14.80;;;9.80;;
11616;SDS011;5864;52.998;9.068;2022-08-26T03:38:06;17.50;;;9.87;;
11616;SDS011;5864;52.998;9.068;2022-08-26T03:40:33;13.40;;;9.77;;
11616;SDS011;5864;52.998;9.068;2022-08-26T03:43:02;13.27;;;9.20;;
11616;SDS011;5864;52.998;9.068;2022-08-26T03:45:30;14.03;;;9.30;;
11616;SDS011;5864;52.998;9.068;2022-08-26T03:47:58;14.13;;;9.23;;
11616;SDS011;5864;52.998;9.068;2022-08-26T03:50:29;15.23;;;9.83;;
11616;SDS011;5864;52.998;9.068;2022-08-26T03:52:56;15.27;;;10.27;;
11616;SDS011;5864;52.998;9.068;2022-08-26T03:55:25;17.10;;;10.23;;
11616;SDS011;5864;52.998;9.068;2022-08-26T03:57:56;18.07;;;10.53;;
11616;SDS011;5864;52.998;9.068;2022-08-26T04:00:23;16.30;;;9.87;;
11616;SDS011;5864;52.998;9.068;2022-08-26T04:02:51;18.47;;;9.60;;
11616;SDS011;5864;52.998;9.068;2022-08-26T04:05:19;13.83;;;10.33;;
11616;SDS011;5864;52.998;9.068;2022-08-26T04:07:50;15.83;;;9.70;;
11616;SDS011;5864;52.998;9.068;2022-08-26T04:10:18;17.63;;;10.13;;
11616;SDS011;5864;52.998;9.068;2022-08-26T04:12:48;16.63;;;10.37;;
11616;SDS011;5864;52.998;9.068;2022-08-26T04:15:17;14.43;;;9.20;;
11616;SDS011;5864;52.998;9.068;2022-08-26T04:17:44;14.37;;;10.10;;
11616;SDS011;5864;52.998;9.068;2022-08-26T04:20:12;21.27;;;10.67;;
11616;SDS011;5864;52.998;9.068;2022-08-26T04:22:42;20.63;;;10.03;;
11616;SDS011;5864;52.998;9.068;2022-08-26T04:25:12;14.53;;;9.90;;
11616;SDS011;5864;52.998;9.068;2022-08-26T04:27:39;15.77;;;10.27;;
11616;SDS011;5864;52.998;9.068;2022-08-26T04:30:08;18.60;;;11.20;;
11616;SDS011;5864;52.998;9.068;2022-08-26T04:32:36;17.07;;;10.27;;
11616;SDS011;5864;52.998;9.068;2022-08-26T04:35:04;16.60;;;9.93;;
11616;SDS011;5864;52.998;9.068;2022-08-26T04:37:32;17.90;;;10.27;;
11616;SDS011;5864;52.998;9.068;2022-08-26T04:40:00;20.63;;;10.97;;
11616;SDS011;5864;52.998;9.068;2022-08-26T04:42:30;16.03;;;10.57;;
11616;SDS011;5864;52.998;9.068;2022-08-26T04:44:58;19.70;;;10.60;;
11616;SDS011;5864;52.998;9.068;2022-08-26T04:47:26;15.63;;;10.30;;
11616;SDS011;5864;52.998;9.068;2022-08-26T04:49:53;18.80;;;10.47;;
11616;SDS011;5864;52.998;9.068;2022-08-26T04:52:22;19.47;;;11.70;;
11616;SDS011;5864;52.998;9.068;2022-08-26T04:54:49;16.87;;;11.47;;
11616;SDS011;5864;52.998;9.068;2022-08-26T04:57:17;15.30;;;10.40;;
11616;SDS011;5864;52.998;9.068;2022-08-26T04:59:48;20.27;;;11.37;;
11616;SDS011;5864;52.998;9.068;2022-08-26T05:02:16;16.13;;;10.03;;
11616;SDS011;5864;52.998;9.068;2022-08-26T05:04:43;16.33;;;10.77;;
11616;SDS011;5864;52.998;9.068;2022-08-26T05:07:11;18.50;;;11.30;;
11616;SDS011;5864;52.998;9.068;2022-08-26T05:09:39;17.33;;;11.23;;
11616;SDS011;5864;52.998;9.068;2022-08-26T05:12:06;14.10;;;10.17;;
11616;SDS011;5864;52.998;9.068;2022-08-26T05:14:34;13.03;;;9.53;;
11616;SDS011;5864;52.998;9.068;2022-08-26T05:17:03;16.90;;;10.57;;
11616;SDS011;5864;52.998;9.068;2022-08-26T05:19:31;14.90;;;10.77;;
11616;SDS011;5864;52.998;9.068;2022-08-26T05:21:59;14.57;;;10.50;;
11616;SDS011;5864;52.998;9.068;2022-08-26T05:24:26;17.63;;;11.33;;
11616;SDS011;5864;52.998;9.068;2022-08-26T05:26:54;20.97;;;11.23;;
11616;SDS011;5864;52.998;9.068;2022-08-26T05:29:22;14.17;;;10.67;;
11616;SDS011;5864;52.998;9.068;2022-08-26T05:31:50;18.73;;;10.47;;
11616;SDS011;5864;52.998;9.068;2022-08-26T05:34:20;17.43;;;10.67;;
11616;SDS011;5864;52.998;9.068;2022-08-26T05:36:47;19.67;;;11.07;;
11616;SDS011;5864;52.998;9.068;2022-08-26T05:39:15;18.23;;;9.93;;
11616;SDS011;5864;52.998;9.068;2022-08-26T05:41:43;14.73;;;10.97;;
11616;SDS011;5864;52.998;9.068;2022-08-26T05:44:11;14.97;;;10.23;;
11616;SDS011;5864;52.998;9.068;2022-08-26T05:46:40;16.50;;;11.20;;
11616;SDS011;5864;52.998;9.068;2022-08-26T05:49:07;22.97;;;11.70;;
11616;SDS011;5864;52.998;9.068;2022-08-26T05:51:36;16.97;;;11.00;;
11616;SDS011;5864;52.998;9.068;2022-08-26T05:54:04;16.10;;;11.00;;
11616;SDS011;5864;52.998;9.068;2022-08-26T05:56:32;17.33;;;10.60;;
11616;SDS011;5864;52.998;9.068;2022-08-26T05:58:59;12.27;;;9.97;;
11616;SDS011;5864;52.998;9.068;2022-08-26T06:01:27;16.40;;;10.03;;
11616;SDS011;5864;52.998;9.068;2022-08-26T06:03:55;16.13;;;10.33;;
11616;SDS011;5864;52.998;9.068;2022-08-26T06:06:26;16.83;;;11.10;;
11616;SDS011;5864;52.998;9.068;2022-08-26T06:08:56;17.47;;;10.43;;
11616;SDS011;5864;52.998;9.068;2022-08-26T06:11:25;16.03;;;10.67;;
11616;SDS011;5864;52.998;9.068;2022-08-26T06:13:55;13.13;;;9.97;;
11616;SDS011;5864;52.998;9.068;2022-08-26T06:16:25;13.73;;;10.10;;
11616;SDS011;5864;52.998;9.068;2022-08-26T06:18:53;14.40;;;10.00;;
11616;SDS011;5864;52.998;9.068;2022-08-26T06:21:21;13.67;;;9.57;;
11616;SDS011;5864;52.998;9.068;2022-08-26T06:23:52;13.53;;;9.80;;
11616;SDS011;5864;52.998;9.068;2022-08-26T06:26:40;13.70;;;10.17;;
11616;SDS011;5864;52.998;9.068;2022-08-26T06:29:08;13.47;;;9.27;;
11616;SDS011;5864;52.998;9.068;2022-08-26T06:31:36;14.07;;;9.50;;
11616;SDS011;5864;52.998;9.068;2022-08-26T06:34:04;15.57;;;9.50;;
11616;SDS011;5864;52.998;9.068;2022-08-26T06:36:32;18.13;;;9.90;;
11616;SDS011;5864;52.998;9.068;2022-08-26T06:39:01;14.17;;;10.33;;
11616;SDS011;5864;52.998;9.068;2022-08-26T06:41:32;16.80;;;10.77;;
11616;SDS011;5864;52.998;9.068;2022-08-26T06:44:02;16.50;;;10.60;;
11616;SDS011;5864;52.998;9.068;2022-08-26T06:46:31;11.80;;;10.10;;
11616;SDS011;5864;52.998;9.068;2022-08-26T06:48:59;18.57;;;10.73;;
11616;SDS011;5864;52.998;9.068;2022-08-26T06:51:27;17.53;;;10.77;;
11616;SDS011;5864;52.998;9.068;2022-08-26T06:53:58;15.33;;;10.83;;
11616;SDS011;5864;52.998;9.068;2022-08-26T06:56:27;14.17;;;10.23;;
11616;SDS011;5864;52.998;9.068;2022-08-26T06:58:58;15.53;;;11.10;;
11616;SDS011;5864;52.998;9.068;2022-08-26T07:01:28;15.73;;;11.37;;
11616;SDS011;5864;52.998;9.068;2022-08-26T07:03:58;19.27;;;10.43;;
11616;SDS011;5864;52.998;9.068;2022-08-26T07:06:28;18.07;;;11.40;;
11616;SDS011;5864;52.998;9.068;2022-08-26T07:08:58;21.23;;;13.37;;
11616;SDS011;5864;52.998;9.068;2022-08-26T07:11:28;20.33;;;13.40;;
11616;SDS011;5864;52.998;9.068;2022-08-26T07:13:57;19.57;;;13.10;;
11616;SDS011;5864;52.998;9.068;2022-08-26T07:16:27;21.03;;;13.97;;
11616;SDS011;5864;52.998;9.068;2022-08-26T07:18:55;17.97;;;12.60;;
11616;SDS011;5864;52.998;9.068;2022-08-26T07:21:23;18.40;;;12.37;;
11616;SDS011;5864;52.998;9.068;2022-08-26T07:23:51;15.93;;;11.20;;
11616;SDS011;5864;52.998;9.068;2022-08-26T07:26:20;18.33;;;13.07;;
11616;SDS011;5864;52.998;9.068;2022-08-26T07:28:49;20.63;;;13.20;;
11616;SDS011;5864;52.998;9.068;2022-08-26T07:31:18;21.80;;;13.37;;
11616;SDS011;5864;52.998;9.068;2022-08-26T07:33:49;16.70;;;11.93;;
11616;SDS011;5864;52.998;9.068;2022-08-26T07:36:17;18.87;;;14.33;;
11616;SDS011;5864;52.998;9.068;2022-08-26T07:38:46;18.40;;;11.57;;
11616;SDS011;5864;52.998;9.068;2022-08-26T07:41:13;17.80;;;12.47;;
11616;SDS011;5864;52.998;9.068;2022-08-26T07:43:42;18.43;;;13.47;;
11616;SDS011;5864;52.998;9.068;2022-08-26T07:46:10;22.07;;;12.10;;
11616;SDS011;5864;52.998;9.068;2022-08-26T07:48:43;16.63;;;11.83;;
11616;SDS011;5864;52.998;9.068;2022-08-26T07:51:12;19.83;;;12.47;;
11616;SDS011;5864;52.998;9.068;2022-08-26T07:53:40;15.67;;;10.80;;
11616;SDS011;5864;52.998;9.068;2022-08-26T07:56:08;20.93;;;12.07;;
11616;SDS011;5864;52.998;9.068;2022-08-26T07:58:36;15.27;;;11.57;;
11616;SDS011;5864;52.998;9.068;2022-08-26T08:01:03;15.83;;;10.53;;
11616;SDS011;5864;52.998;9.068;2022-08-26T08:03:32;13.40;;;10.10;;
11616;SDS011;5864;52.998;9.068;2022-08-26T08:05:59;11.87;;;10.50;;
11616;SDS011;5864;52.998;9.068;2022-08-26T08:08:28;16.57;;;11.00;;
11616;SDS011;5864;52.998;9.068;2022-08-26T08:10:56;14.00;;;9.80;;
11616;SDS011;5864;52.998;9.068;2022-08-26T08:13:23;16.37;;;10.33;;
11616;SDS011;5864;52.998;9.068;2022-08-26T08:15:51;14.00;;;9.40;;
11616;SDS011;5864;52.998;9.068;2022-08-26T08:18:19;13.13;;;9.57;;
11616;SDS011;5864;52.998;9.068;2022-08-26T08:20:47;19.20;;;10.17;;
11616;SDS011;5864;52.998;9.068;2022-08-26T08:23:15;16.03;;;10.17;;
11616;SDS011;5864;52.998;9.068;2022-08-26T08:25:44;12.50;;;10.13;;
11616;SDS011;5864;52.998;9.068;2022-08-26T08:28:11;15.67;;;9.93;;
11616;SDS011;5864;52.998;9.068;2022-08-26T08:30:39;15.50;;;10.33;;
11616;SDS011;5864;52.998;9.068;2022-08-26T08:33:07;14.37;;;10.50;;
11616;SDS011;5864;52.998;9.068;2022-08-26T08:35:35;12.20;;;10.27;;
11616;SDS011;5864;52.998;9.068;2022-08-26T08:38:03;16.23;;;10.27;;
11616;SDS011;5864;52.998;9.068;2022-08-26T08:40:31;17.37;;;10.17;;
11616;SDS011;5864;52.998;9.068;2022-08-26T08:43:02;19.23;;;10.40;;
11616;SDS011;5864;52.998;9.068;2022-08-26T08:45:32;13.43;;;10.13;;
11616;SDS011;5864;52.998;9.068;2022-08-26T08:48:03;17.30;;;10.67;;
11616;SDS011;5864;52.998;9.068;2022-08-26T08:50:33;16.93;;;9.17;;
11616;SDS011;5864;52.998;9.068;2022-08-26T08:53:09;16.53;;;10.00;;
11616;SDS011;5864;52.998;9.068;2022-08-26T08:55:43;14.87;;;10.00;;
11616;SDS011;5864;52.998;9.068;2022-08-26T08:58:26;14.77;;;9.00;;
11616;SDS011;5864;52.998;9.068;2022-08-26T09:01:05;17.90;;;9.63;;
11616;SDS011;5864;52.998;9.068;2022-08-26T09:03:42;18.23;;;9.50;;
11616;SDS011;5864;52.998;9.068;2022-08-26T09:06:18;12.97;;;8.20;;
11616;SDS011;5864;52.998;9.068;2022-08-26T09:08:46;17.03;;;9.57;;
11616;SDS011;5864;52.998;9.068;2022-08-26T09:11:16;17.87;;;9.27;;
11616;SDS011;5864;52.998;9.068;2022-08-26T09:13:48;14.53;;;8.33;;
11616;SDS011;5864;52.998;9.068;2022-08-26T09:16:19;10.57;;;8.53;;
11616;SDS011;5864;52.998;9.068;2022-08-26T09:19:00;12.73;;;7.73;;
11616;SDS011;5864;52.998;9.068;2022-08-26T09:21:35;14.13;;;8.17;;
11616;SDS011;5864;52.998;9.068;2022-08-26T09:24:03;12.17;;;8.07;;
11616;SDS011;5864;52.998;9.068;2022-08-26T09:26:40;11.83;;;7.83;;
11616;SDS011;5864;52.998;9.068;2022-08-26T09:29:18;11.40;;;7.27;;
11616;SDS011;5864;52.998;9.068;2022-08-26T09:31:49;11.77;;;7.83;;
11616;SDS011;5864;52.998;9.068;2022-08-26T09:34:18;12.43;;;7.87;;
11616;SDS011;5864;52.998;9.068;2022-08-26T09:36:49;12.63;;;7.90;;
11616;SDS011;5864;52.998;9.068;2022-08-26T09:39:25;12.63;;;8.63;;
11616;SDS011;5864;52.998;9.068;2022-08-26T09:42:00;13.03;;;7.60;;
11616;SDS011;5864;52.998;9.068;2022-08-26T09:44:33;13.60;;;7.63;;
11616;SDS011;5864;52.998;9.068;2022-08-26T09:47:02;15.13;;;7.50;;
11616;SDS011;5864;52.998;9.068;2022-08-26T09:49:32;11.77;;;6.60;;
11616;SDS011;5864;52.998;9.068;2022-08-26T09:52:02;11.20;;;7.27;;
11616;SDS011;5864;52.998;9.068;2022-08-26T09:54:32;11.83;;;6.93;;
11616;SDS011;5864;52.998;9.068;2022-08-26T09:59:55;18.73;;;7.10;;
11616;SDS011;5864;52.998;9.068;2022-08-26T10:02:34;11.17;;;6.73;;
11616;SDS011;5864;52.998;9.068;2022-08-26T10:05:07;12.87;;;7.27;;
11616;SDS011;5864;52.998;9.068;2022-08-26T10:07:43;13.50;;;6.70;;
11616;SDS011;5864;52.998;9.068;2022-08-26T10:10:24;11.60;;;7.00;;
11616;SDS011;5864;52.998;9.068;2022-08-26T10:13:05;10.47;;;6.63;;
11616;SDS011;5864;52.998;9.068;2022-08-26T10:15:40;12.37;;;6.53;;
11616;SDS011;5864;52.998;9.068;2022-08-26T10:18:12;13.03;;;6.90;;
11616;SDS011;5864;52.998;9.068;2022-08-26T10:20:47;10.80;;;7.03;;
11616;SDS011;5864;52.998;9.068;2022-08-26T10:23:20;11.13;;;6.77;;
11616;SDS011;5864;52.998;9.068;2022-08-26T10:25:51;9.07;;;6.43;;
11616;SDS011;5864;52.998;9.068;2022-08-26T10:28:24;11.20;;;6.80;;
11616;SDS011;5864;52.998;9.068;2022-08-26T10:30:59;10.77;;;6.57;;
11616;SDS011;5864;52.998;9.068;2022-08-26T10:33:33;16.10;;;6.93;;
11616;SDS011;5864;52.998;9.068;2022-08-26T10:36:05;10.73;;;7.17;;
11616;SDS011;5864;52.998;9.068;2022-08-26T10:38:57;9.40;;;7.27;;
11616;SDS011;5864;52.998;9.068;2022-08-26T10:41:30;11.40;;;7.13;;
11616;SDS011;5864;52.998;9.068;2022-08-26T10:44:01;12.27;;;7.80;;
11616;SDS011;5864;52.998;9.068;2022-08-26T10:46:36;14.97;;;7.57;;
11616;SDS011;5864;52.998;9.068;2022-08-26T10:49:08;14.03;;;7.27;;
11616;SDS011;5864;52.998;9.068;2022-08-26T10:51:39;13.63;;;8.00;;
11616;SDS011;5864;52.998;9.068;2022-08-26T10:54:14;12.50;;;7.40;;
11616;SDS011;5864;52.998;9.068;2022-08-26T10:56:48;13.33;;;7.97;;
11616;SDS011;5864;52.998;9.068;2022-08-26T10:59:23;12.07;;;8.00;;
11616;SDS011;5864;52.998;9.068;2022-08-26T11:02:04;11.87;;;7.90;;
11616;SDS011;5864;52.998;9.068;2022-08-26T11:04:45;12.97;;;6.87;;
11616;SDS011;5864;52.998;9.068;2022-08-26T11:07:32;10.47;;;7.27;;
11616;SDS011;5864;52.998;9.068;2022-08-26T11:10:04;14.10;;;6.60;;
11616;SDS011;5864;52.998;9.068;2022-08-26T11:12:47;10.43;;;6.60;;
11616;SDS011;5864;52.998;9.068;2022-08-26T11:18:37;7.20;;;5.27;;
11616;SDS011;5864;52.998;9.068;2022-08-26T11:39:23;6.57;;;5.20;;
11616;SDS011;5864;52.998;9.068;2022-08-26T11:41:57;11.87;;;5.67;;
11616;SDS011;5864;52.998;9.068;2022-08-26T11:44:28;8.70;;;6.03;;
11616;SDS011;5864;52.998;9.068;2022-08-26T11:47:04;10.53;;;6.57;;
11616;SDS011;5864;52.998;9.068;2022-08-26T11:49:36;12.67;;;7.03;;
11616;SDS011;5864;52.998;9.068;2022-08-26T11:52:08;10.47;;;6.27;;
11616;SDS011;5864;52.998;9.068;2022-08-26T11:54:38;10.80;;;6.50;;
11616;SDS011;5864;52.998;9.068;2022-08-26T11:57:06;11.07;;;6.13;;
11616;SDS011;5864;52.998;9.068;2022-08-26T11:59:38;11.03;;;6.33;;
11616;SDS011;5864;52.998;9.068;2022-08-26T12:02:12;13.50;;;6.63;;
11616;SDS011;5864;52.998;9.068;2022-08-26T12:04:44;13.50;;;6.63;;
11616;SDS011;5864;52.998;9.068;2022-08-26T12:07:14;12.90;;;7.10;;
11616;SDS011;5864;52.998;9.068;2022-08-26T12:09:55;15.30;;;6.43;;
11616;SDS011;5864;52.998;9.068;2022-08-26T12:12:25;15.70;;;7.07;;
11616;SDS011;5864;52.998;9.068;2022-08-26T12:17:42;12.87;;;6.77;;
11616;SDS011;5864;52.998;9.068;2022-08-26T12:20:26;12.70;;;6.07;;
11616;SDS011;5864;52.998;9.068;2022-08-26T12:23:19;11.80;;;6.80;;
11616;SDS011;5864;52.998;9.068;2022-08-26T12:25:48;14.37;;;7.00;;
11616;SDS011;5864;52.998;9.068;2022-08-26T12:28:16;12.30;;;6.53;;
11616;SDS011;5864;52.998;9.068;2022-08-26T12:30:57;13.47;;;7.33;;
11616;SDS011;5864;52.998;9.068;2022-08-26T12:33:26;14.83;;;7.20;;
11616;SDS011;5864;52.998;9.068;2022-08-26T12:35:55;12.73;;;7.37;;
11616;SDS011;5864;52.998;9.068;2022-08-26T12:38:26;14.03;;;6.93;;
11616;SDS011;5864;52.998;9.068;2022-08-26T12:40:54;12.63;;;7.53;;
11616;SDS011;5864;52.998;9.068;2022-08-26T12:43:35;13.17;;;7.10;;
11616;SDS011;5864;52.998;9.068;2022-08-26T12:46:05;12.60;;;6.60;;
11616;SDS011;5864;52.998;9.068;2022-08-26T12:48:34;12.10;;;6.50;;
11616;SDS011;5864;52.998;9.068;2022-08-26T12:51:06;12.53;;;7.23;;
11616;SDS011;5864;52.998;9.068;2022-08-26T12:53:41;11.03;;;6.77;;
11616;SDS011;5864;52.998;9.068;2022-08-26T12:56:20;12.20;;;6.67;;
11616;SDS011;5864;52.998;9.068;2022-08-26T12:59:04;14.80;;;6.63;;
11616;SDS011;5864;52.998;9.068;2022-08-26T13:01:37;12.50;;;7.10;;
11616;SDS011;5864;52.998;9.068;2022-08-26T13:07:14;12.40;;;7.33;;
11616;SDS011;5864;52.998;9.068;2022-08-26T13:09:47;13.77;;;7.00;;
11616;SDS011;5864;52.998;9.068;2022-08-26T13:12:23;17.37;;;7.70;;
11616;SDS011;5864;52.998;9.068;2022-08-26T13:14:53;12.53;;;7.03;;
11616;SDS011;5864;52.998;9.068;2022-08-26T13:17:23;13.83;;;7.20;;
11616;SDS011;5864;52.998;9.068;2022-08-26T13:19:51;16.23;;;7.33;;
11616;SDS011;5864;52.998;9.068;2022-08-26T13:22:21;14.57;;;7.30;;
11616;SDS011;5864;52.998;9.068;2022-08-26T13:24:50;15.33;;;7.43;;
11616;SDS011;5864;52.998;9.068;2022-08-26T13:27:21;14.43;;;7.40;;
11616;SDS011;5864;52.998;9.068;2022-08-26T13:29:50;14.77;;;7.70;;
11616;SDS011;5864;52.998;9.068;2022-08-26T13:32:18;16.30;;;7.30;;
11616;SDS011;5864;52.998;9.068;2022-08-26T13:34:47;16.10;;;7.57;;
11616;SDS011;5864;52.998;9.068;2022-08-26T13:37:16;14.37;;;7.93;;
11616;SDS011;5864;52.998;9.068;2022-08-26T13:39:48;17.53;;;8.63;;
11616;SDS011;5864;52.998;9.068;2022-08-26T13:42:18;16.00;;;7.37;;
11616;SDS011;5864;52.998;9.068;2022-08-26T13:44:46;15.80;;;7.37;;
11616;SDS011;5864;52.998;9.068;2022-08-26T13:47:16;14.47;;;7.60;;
11616;SDS011;5864;52.998;9.068;2022-08-26T13:49:45;14.80;;;8.00;;
11616;SDS011;5864;52.998;9.068;2022-08-26T13:52:13;17.47;;;8.10;;
11616;SDS011;5864;52.998;9.068;2022-08-26T13:54:41;15.33;;;7.10;;
11616;SDS011;5864;52.998;9.068;2022-08-26T13:57:09;15.73;;;8.17;;
11616;SDS011;5864;52.998;9.068;2022-08-26T13:59:37;17.40;;;7.77;;
11616;SDS011;5864;52.998;9.068;2022-08-26T14:02:04;16.73;;;7.47;;
11616;SDS011;5864;52.998;9.068;2022-08-26T14:04:32;18.77;;;8.23;;
11616;SDS011;5864;52.998;9.068;2022-08-26T14:07:00;20.60;;;7.80;;
11616;SDS011;5864;52.998;9.068;2022-08-26T14:09:28;16.20;;;8.80;;
11616;SDS011;5864;52.998;9.068;2022-08-26T14:11:56;13.33;;;7.37;;
11616;SDS011;5864;52.998;9.068;2022-08-26T14:14:24;19.13;;;9.30;;
11616;SDS011;5864;52.998;9.068;2022-08-26T14:16:52;19.90;;;10.07;;
11616;SDS011;5864;52.998;9.068;2022-08-26T14:19:19;14.17;;;11.40;;
11616;SDS011;5864;52.998;9.068;2022-08-26T14:21:47;13.87;;;10.83;;
11616;SDS011;5864;52.998;9.068;2022-08-26T14:24:14;13.00;;;9.63;;
11616;SDS011;5864;52.998;9.068;2022-08-26T14:26:42;17.13;;;9.43;;
11616;SDS011;5864;52.998;9.068;2022-08-26T14:29:09;10.43;;;8.93;;
11616;SDS011;5864;52.998;9.068;2022-08-26T14:31:38;11.73;;;8.37;;
11616;SDS011;5864;52.998;9.068;2022-08-26T14:34:06;11.13;;;7.67;;
11616;SDS011;5864;52.998;9.068;2022-08-26T14:36:34;12.30;;;7.13;;
11616;SDS011;5864;52.998;9.068;2022-08-26T14:39:03;11.13;;;7.77;;
11616;SDS011;5864;52.998;9.068;2022-08-26T14:41:33;11.97;;;6.77;;
11616;SDS011;5864;52.998;9.068;2022-08-26T14:44:05;10.00;;;6.90;;
11616;SDS011;5864;52.998;9.068;2022-08-26T14:46:41;11.13;;;6.30;;
11616;SDS011;5864;52.998;9.068;2022-08-26T14:49:12;9.20;;;5.37;;
11616;SDS011;5864;52.998;9.068;2022-08-26T14:51:40;8.50;;;6.13;;
11616;SDS011;5864;52.998;9.068;2022-08-26T14:54:07;7.13;;;5.80;;
11616;SDS011;5864;52.998;9.068;2022-08-26T14:56:40;10.37;;;5.80;;
11616;SDS011;5864;52.998;9.068;2022-08-26T14:59:13;7.20;;;5.70;;
11616;SDS011;5864;52.998;9.068;2022-08-26T15:01:44;7.77;;;5.50;;
11616;SDS011;5864;52.998;9.068;2022-08-26T15:04:12;8.30;;;5.70;;
11616;SDS011;5864;52.998;9.068;2022-08-26T15:06:40;8.87;;;5.90;;
11616;SDS011;5864;52.998;9.068;2022-08-26T15:09:08;10.63;;;6.20;;
11616;SDS011;5864;52.998;9.068;2022-08-26T15:11:36;8.47;;;7.20;;
11616;SDS011;5864;52.998;9.068;2022-08-26T15:14:03;8.10;;;7.00;;
11616;SDS011;5864;52.998;9.068;2022-08-26T15:16:32;10.70;;;7.23;;
11616;SDS011;5864;52.998;9.068;2022-08-26T15:19:01;10.67;;;7.37;;
11616;SDS011;5864;52.998;9.068;2022-08-26T15:21:30;13.33;;;10.37;;
11616;SDS011;5864;52.998;9.068;2022-08-26T15:23:58;16.67;;;11.50;;
11616;SDS011;5864;52.998;9.068;2022-08-26T15:26:27;15.07;;;12.03;;
11616;SDS011;5864;52.998;9.068;2022-08-26T15:28:56;19.57;;;13.53;;
11616;SDS011;5864;52.998;9.068;2022-08-26T15:31:25;18.93;;;13.83;;